CheckWX is a tool to help pilots better visualize weather data.  It is not intended as a substitute for an official pre-flight weather briefing.

02:52:07 UTC

KJQF METAR
Concord Regional Airport
Concord, North Carolina, USA
Current

53 mins ago

KJQF 240159Z 00000KT 10SM CLR 08/M02 A3029
Observed
Mar-24 @ 01:59 UTC
Visibility
10 SM
Flight Rules
VFR
Cloud Levels
  • Clear skies
Temperature
C / 46°F
Dewpoint
-2°C / 28°F
Humidity
50%
Altimeter
30.29" Hg
Pressure
1025.72 hPa
Previous

2 hours ago

KJQF 240050Z 00000KT 10SM CLR 10/M04 A3027
Observed
Mar-24 @ 00:50 UTC
Visibility
10 SM
Flight Rules
VFR
Cloud Levels
  • Clear skies
Temperature
10°C / 50°F
Dewpoint
-4°C / 25°F
Humidity
37%
Altimeter
30.27" Hg
Pressure
1025.02 hPa
Previous

3 hours ago

KJQF 232355Z 00000KT 10SM CLR 12/M04 A3026
Observed
Mar-23 @ 23:55 UTC
Visibility
10 SM
Flight Rules
VFR
Cloud Levels
  • Clear skies
Temperature
12°C / 54°F
Dewpoint
-4°C / 25°F
Humidity
33%
Altimeter
30.26" Hg
Pressure
1024.72 hPa